Time;durP1;ratioP1;P1;durP2;ratioP2;P2;SDS_P1;SDS_P2;PMS_P1;PMS_P2;Temp;Humidity;BMP_temperature;BMP_pressure;BME280_temperature;BME280_humidity;BME280_pressure;Samples;Min_cycle;Max_cycle;Signal;HPM_P1;HPM_P2
2023/04/08 00:00:00;;;;;;;13.13;6.68;;;;;;;;;;6214468;23;20399;-84
2023/04/08 00:02:45;;;;;;;11.35;6.22;;;;;;;;;;6215128;23;20012;-83
2023/04/08 00:05:29;;;;;;;15.00;6.57;;;;;;;;;;6215007;23;20071;-84
2023/04/08 00:08:14;;;;;;;12.18;6.55;;;;;;;;;;6214439;23;20097;-84
2023/04/08 00:10:59;;;;;;;10.43;6.13;;;;;;;;;;6214262;23;20019;-83
2023/04/08 00:13:43;;;;;;;12.35;6.72;;;;;;;;;;6213740;23;20051;-84
2023/04/08 00:16:28;;;;;;;11.20;6.15;;;;;;;;;;6213648;23;20024;-83
2023/04/08 00:19:12;;;;;;;11.77;7.00;;;;;;;;;;6213013;23;20070;-84
2023/04/08 00:21:57;;;;;;;11.43;6.65;;;;;;;;;;6214204;23;20094;-84
2023/04/08 00:24:41;;;;;;;14.43;7.65;;;;;;;;;;6214836;23;20078;-84
2023/04/08 00:27:26;;;;;;;12.82;7.72;;;;;;;;;;6213400;23;20519;-84
2023/04/08 00:30:11;;;;;;;11.95;7.22;;;;;;;;;;6191869;23;20047;-83
2023/04/08 00:32:55;;;;;;;13.68;7.55;;;;;;;;;;6214153;23;20058;-86
2023/04/08 00:35:39;;;;;;;14.35;8.07;;;;;;;;;;6192228;23;20123;-86
2023/04/08 00:38:24;;;;;;;12.48;7.30;;;;;;;;;;6214913;23;20095;-83
2023/04/08 00:41:09;;;;;;;12.52;8.18;;;;;;;;;;6214165;23;20055;-84
2023/04/08 00:43:54;;;;;;;13.23;7.47;;;;;;;;;;6213419;23;20020;-84
2023/04/08 00:46:39;;;;;;;14.00;8.43;;;;;;;;;;6214543;23;20060;-84
2023/04/08 00:49:24;;;;;;;15.02;8.70;;;;;;;;;;6213266;23;20067;-84
2023/04/08 00:52:09;;;;;;;12.43;8.57;;;;;;;;;;6213907;23;20490;-83
2023/04/08 00:54:55;;;;;;;14.15;8.68;;;;;;;;;;6213207;23;20469;-83
2023/04/08 00:57:40;;;;;;;17.70;9.48;;;;;;;;;;6214634;23;20020;-84
2023/04/08 01:00:25;;;;;;;17.27;9.40;;;;;;;;;;6214517;23;20036;-84
2023/04/08 01:03:18;;;;;;;15.25;10.10;;;;;;;;;;6213968;23;20112;-83
2023/04/08 01:06:21;;;;;;;17.55;9.13;;;;;;;;;;6212657;23;20020;-84
2023/04/08 01:09:06;;;;;;;16.52;10.15;;;;;;;;;;6213538;23;20055;-84
2023/04/08 01:11:51;;;;;;;16.90;8.88;;;;;;;;;;6213138;23;20019;-86
2023/04/08 01:14:40;;;;;;;16.63;10.65;;;;;;;;;;6213196;23;20023;-84
2023/04/08 01:17:24;;;;;;;15.10;9.68;;;;;;;;;;6212675;23;20016;-84
2023/04/08 01:20:09;;;;;;;14.02;9.20;;;;;;;;;;6212488;23;20016;-84
2023/04/08 01:22:54;;;;;;;13.52;9.25;;;;;;;;;;6213078;23;20012;-84
2023/04/08 01:25:39;;;;;;;21.03;9.60;;;;;;;;;;6212915;23;20308;-84
2023/04/08 01:28:24;;;;;;;17.30;9.27;;;;;;;;;;6212428;23;20016;-84
2023/04/08 01:31:09;;;;;;;18.38;9.55;;;;;;;;;;6212425;23;20063;-84
2023/04/08 01:33:54;;;;;;;15.10;9.17;;;;;;;;;;6213102;23;20016;-84
2023/04/08 01:36:40;;;;;;;15.25;9.43;;;;;;;;;;6214234;23;20340;-84
2023/04/08 01:39:25;;;;;;;14.40;10.17;;;;;;;;;;6213247;23;20027;-84
2023/04/08 01:42:10;;;;;;;17.10;10.90;;;;;;;;;;6213587;23;20347;-84
2023/04/08 01:44:57;;;;;;;17.63;10.60;;;;;;;;;;6212670;23;20035;-84
2023/04/08 01:47:41;;;;;;;18.03;10.70;;;;;;;;;;6212919;23;20086;-84
2023/04/08 01:50:27;;;;;;;18.57;9.93;;;;;;;;;;6213367;23;20035;-84
2023/04/08 01:53:11;;;;;;;15.90;10.73;;;;;;;;;;6212138;23;20015;-85
2023/04/08 01:55:57;;;;;;;18.70;10.97;;;;;;;;;;6213974;23;20466;-84
2023/04/08 01:58:46;;;;;;;20.80;11.77;;;;;;;;;;6213808;23;20066;-84
2023/04/08 02:01:32;;;;;;;20.90;11.97;;;;;;;;;;6213808;23;20011;-84
2023/04/08 02:04:16;;;;;;;16.63;10.53;;;;;;;;;;6213063;23;20070;-84
2023/04/08 02:07:02;;;;;;;20.47;10.47;;;;;;;;;;6213822;23;20059;-84
2023/04/08 02:09:46;;;;;;;18.55;12.10;;;;;;;;;;6191528;23;20387;-83
2023/04/08 02:12:32;;;;;;;21.93;11.30;;;;;;;;;;6212380;23;20336;-84
2023/04/08 02:15:17;;;;;;;19.57;11.27;;;;;;;;;;6211852;23;20015;-84
2023/04/08 02:18:13;;;;;;;23.83;11.87;;;;;;;;;;6213617;23;20075;-84
2023/04/08 02:21:02;;;;;;;20.57;11.13;;;;;;;;;;6213695;23;20519;-83
2023/04/08 02:23:50;;;;;;;23.03;12.33;;;;;;;;;;6213697;23;20031;-84
2023/04/08 02:26:36;;;;;;;19.77;12.03;;;;;;;;;;6212454;23;20020;-85
2023/04/08 02:29:21;;;;;;;18.23;12.23;;;;;;;;;;6213004;23;20064;-84
2023/04/08 02:32:08;;;;;;;21.17;12.13;;;;;;;;;;6191543;23;20454;-84
2023/04/08 02:34:53;;;;;;;22.10;12.67;;;;;;;;;;6213714;23;20015;-84
2023/04/08 02:37:38;;;;;;;21.47;12.77;;;;;;;;;;6213658;23;20070;-84
2023/04/08 02:40:27;;;;;;;21.20;12.87;;;;;;;;;;6213075;23;20093;-83
2023/04/08 02:43:11;;;;;;;22.43;12.47;;;;;;;;;;6213464;23;20059;-87
2023/04/08 02:45:56;;;;;;;19.93;12.93;;;;;;;;;;6212449;23;20397;-84
2023/04/08 02:48:41;;;;;;;23.43;13.43;;;;;;;;;;6213781;23;20016;-84
2023/04/08 02:51:26;;;;;;;21.87;12.53;;;;;;;;;;6211618;23;20088;-84
2023/04/08 02:54:11;;;;;;;24.13;12.93;;;;;;;;;;6212297;23;20498;-86
2023/04/08 02:56:56;;;;;;;25.23;12.93;;;;;;;;;;6212314;23;20023;-84
2023/04/08 02:59:41;;;;;;;22.83;13.80;;;;;;;;;;6213623;23;20107;-84
2023/04/08 03:02:25;;;;;;;22.20;12.93;;;;;;;;;;6212993;23;20019;-83
2023/04/08 03:05:10;;;;;;;20.57;12.83;;;;;;;;;;6213540;23;20392;-84
2023/04/08 03:07:55;;;;;;;24.50;13.87;;;;;;;;;;6213142;23;20036;-84
2023/04/08 03:10:40;;;;;;;22.37;12.93;;;;;;;;;;6213332;23;20095;-84
2023/04/08 03:13:25;;;;;;;23.47;13.33;;;;;;;;;;6211415;23;20063;-85
2023/04/08 03:16:10;;;;;;;25.67;14.40;;;;;;;;;;6212104;23;20067;-84
2023/04/08 03:18:54;;;;;;;24.57;14.17;;;;;;;;;;6212065;23;20020;-83
2023/04/08 03:21:39;;;;;;;27.80;13.83;;;;;;;;;;6212835;23;20035;-84
2023/04/08 03:24:24;;;;;;;24.43;14.70;;;;;;;;;;6212767;23;20012;-85
2023/04/08 03:27:09;;;;;;;27.40;14.63;;;;;;;;;;6212193;23;20450;-84
2023/04/08 03:29:54;;;;;;;27.30;15.30;;;;;;;;;;6212174;23;20454;-84
2023/04/08 03:32:38;;;;;;;28.17;15.87;;;;;;;;;;6212725;23;20032;-86
2023/04/08 03:35:23;;;;;;;29.70;16.30;;;;;;;;;;6190452;23;20143;-84
2023/04/08 03:38:08;;;;;;;22.07;13.50;;;;;;;;;;6191094;23;20068;-84
2023/04/08 03:40:52;;;;;;;26.27;14.77;;;;;;;;;;6212151;23;20135;-84
2023/04/08 03:43:37;;;;;;;27.53;16.83;;;;;;;;;;6211529;23;20047;-84
2023/04/08 03:46:21;;;;;;;24.77;15.23;;;;;;;;;;6211463;23;20454;-85
2023/04/08 03:49:06;;;;;;;29.23;16.50;;;;;;;;;;6213446;23;20351;-84
2023/04/08 03:51:50;;;;;;;28.73;16.53;;;;;;;;;;6213291;23;20055;-85
2023/04/08 03:54:35;;;;;;;31.40;16.80;;;;;;;;;;6211434;23;20058;-85
2023/04/08 03:57:20;;;;;;;29.20;15.70;;;;;;;;;;6211956;23;20019;-87
2023/04/08 04:00:04;;;;;;;30.13;16.83;;;;;;;;;;6213220;23;20023;-84
2023/04/08 04:02:49;;;;;;;38.37;17.27;;;;;;;;;;6213224;23;20020;-84
2023/04/08 04:05:34;;;;;;;28.20;16.77;;;;;;;;;;6192189;23;20050;-84
2023/04/08 04:08:19;;;;;;;31.67;18.47;;;;;;;;;;6192312;23;20067;-84
2023/04/08 04:11:03;;;;;;;34.60;17.23;;;;;;;;;;6213746;23;20457;-84
2023/04/08 04:13:48;;;;;;;32.13;17.93;;;;;;;;;;6213508;23;20391;-84
2023/04/08 04:16:33;;;;;;;30.23;16.57;;;;;;;;;;6212980;23;20020;-84
2023/04/08 04:19:17;;;;;;;36.00;17.73;;;;;;;;;;6215056;23;20347;-84
2023/04/08 04:22:02;;;;;;;31.23;17.67;;;;;;;;;;6213559;23;20016;-84
2023/04/08 04:24:49;;;;;;;31.73;17.60;;;;;;;;;;6213072;23;20446;-85
2023/04/08 04:27:35;;;;;;;38.00;18.73;;;;;;;;;;6214110;23;20368;-84
2023/04/08 04:30:20;;;;;;;31.50;17.60;;;;;;;;;;6213707;23;20078;-84
2023/04/08 04:33:05;;;;;;;33.77;18.63;;;;;;;;;;6214757;23;20507;-84
2023/04/08 04:35:52;;;;;;;34.97;18.00;;;;;;;;;;6214272;23;20041;-84
2023/04/08 04:38:37;;;;;;;37.90;18.37;;;;;;;;;;6212956;23;20079;-85
2023/04/08 04:41:22;;;;;;;34.50;18.37;;;;;;;;;;6213561;23;20099;-85
2023/04/08 04:44:07;;;;;;;36.87;18.33;;;;;;;;;;6214718;23;20051;-84
2023/04/08 04:46:52;;;;;;;32.20;17.40;;;;;;;;;;6213326;23;20024;-84
2023/04/08 04:49:36;;;;;;;30.77;16.93;;;;;;;;;;6213981;23;20063;-84
2023/04/08 04:52:21;;;;;;;29.00;16.33;;;;;;;;;;6213650;23;20059;-84
2023/04/08 04:55:05;;;;;;;36.47;18.47;;;;;;;;;;6214495;23;20051;-84
2023/04/08 04:57:50;;;;;;;31.47;16.77;;;;;;;;;;6212645;23;20339;-84
2023/04/08 05:00:35;;;;;;;33.10;17.17;;;;;;;;;;6213861;23;20059;-85
2023/04/08 05:03:20;;;;;;;33.17;16.87;;;;;;;;;;6192239;23;20015;-84
2023/04/08 05:06:04;;;;;;;31.70;17.67;;;;;;;;;;6213313;23;20035;-85
2023/04/08 05:08:50;;;;;;;32.60;17.63;;;;;;;;;;6212560;23;20027;-84
2023/04/08 05:11:35;;;;;;;32.03;16.97;;;;;;;;;;6213645;23;20059;-85
2023/04/08 05:14:19;;;;;;;32.23;17.47;;;;;;;;;;6213160;23;20344;-85
2023/04/08 05:17:06;;;;;;;32.27;17.03;;;;;;;;;;6214404;23;20032;-87
2023/04/08 05:19:52;;;;;;;31.07;17.57;;;;;;;;;;6212379;23;20011;-87
2023/04/08 05:22:37;;;;;;;32.03;17.13;;;;;;;;;;6212805;23;20430;-84
2023/04/08 05:25:22;;;;;;;32.77;17.90;;;;;;;;;;6212947;23;20099;-84
2023/04/08 05:28:06;;;;;;;39.57;19.20;;;;;;;;;;6213034;23;20067;-85
2023/04/08 05:30:51;;;;;;;32.50;17.57;;;;;;;;;;6212251;23;20059;-85
2023/04/08 05:33:36;;;;;;;31.83;18.20;;;;;;;;;;6212345;23;20092;-85
2023/04/08 05:36:20;;;;;;;39.37;19.00;;;;;;;;;;6212977;23;20342;-85
2023/04/08 05:39:05;;;;;;;37.27;18.87;;;;;;;;;;6214141;23;20019;-85
2023/04/08 05:41:50;;;;;;;33.00;18.87;;;;;;;;;;6213567;23;20091;-85
2023/04/08 05:44:35;;;;;;;38.33;20.83;;;;;;;;;;6213773;23;20066;-89
2023/04/08 05:47:20;;;;;;;40.30;20.50;;;;;;;;;;6214189;23;20019;-84
2023/04/08 05:50:05;;;;;;;40.00;20.03;;;;;;;;;;6212989;23;20131;-85
2023/04/08 05:52:50;;;;;;;43.50;21.30;;;;;;;;;;6213490;23;20016;-85
2023/04/08 05:55:34;;;;;;;43.93;21.53;;;;;;;;;;6214042;23;20020;-85
2023/04/08 05:58:19;;;;;;;43.90;20.83;;;;;;;;;;6214086;23;20016;-84
2023/04/08 06:01:05;;;;;;;43.17;20.63;;;;;;;;;;6212715;23;20024;-87
2023/04/08 06:03:51;;;;;;;38.97;19.10;;;;;;;;;;6213446;23;20019;-85
2023/04/08 06:06:38;;;;;;;36.57;19.00;;;;;;;;;;6213886;23;20055;-87
2023/04/08 06:09:23;;;;;;;38.00;17.97;;;;;;;;;;6212578;23;20465;-85
2023/04/08 06:12:07;;;;;;;42.47;20.93;;;;;;;;;;6212815;23;20099;-86
2023/04/08 06:14:55;;;;;;;36.23;18.83;;;;;;;;;;6212302;23;20071;-84
2023/04/08 06:17:40;;;;;;;35.03;19.23;;;;;;;;;;6190881;23;20019;-92
2023/04/08 06:20:25;;;;;;;38.10;20.10;;;;;;;;;;6212535;23;20071;-84
2023/04/08 06:23:10;;;;;;;34.17;19.17;;;;;;;;;;6212696;23;20143;-85
2023/04/08 06:25:54;;;;;;;35.92;18.58;;;;;;;;;;6212882;23;20020;-82
2023/04/08 06:28:39;;;;;;;31.45;17.95;;;;;;;;;;6212639;23;20015;-85
2023/04/08 06:31:24;;;;;;;33.83;18.92;;;;;;;;;;6191760;23;20023;-85
2023/04/08 06:34:09;;;;;;;32.42;18.63;;;;;;;;;;6212331;23;20087;-85
2023/04/08 06:36:53;;;;;;;32.70;18.25;;;;;;;;;;6190662;23;20044;-85
2023/04/08 06:39:38;;;;;;;34.10;18.27;;;;;;;;;;6212382;23;20068;-85
2023/04/08 06:42:23;;;;;;;30.63;17.75;;;;;;;;;;6213670;23;20066;-83
2023/04/08 06:45:07;;;;;;;35.17;20.15;;;;;;;;;;6213339;23;20012;-84
2023/04/08 06:47:55;;;;;;;34.25;18.15;;;;;;;;;;6212897;23;20470;-84
2023/04/08 06:50:40;;;;;;;33.45;19.52;;;;;;;;;;6213607;23;20518;-84
2023/04/08 06:53:25;;;;;;;31.48;19.10;;;;;;;;;;6213515;23;20023;-84
2023/04/08 06:56:10;;;;;;;30.48;17.17;;;;;;;;;;6211811;23;20074;-84
2023/04/08 06:58:54;;;;;;;29.83;17.98;;;;;;;;;;6211672;23;20028;-85
2023/04/08 07:01:40;;;;;;;30.58;18.85;;;;;;;;;;6213490;23;20626;-86
2023/04/08 07:04:25;;;;;;;30.00;16.88;;;;;;;;;;6213466;23;20023;-85
2023/04/08 07:07:10;;;;;;;26.58;16.98;;;;;;;;;;6212730;23;20070;-85
2023/04/08 07:09:54;;;;;;;26.33;16.65;;;;;;;;;;6189074;23;20024;-85
2023/04/08 07:12:40;;;;;;;26.67;16.17;;;;;;;;;;6212256;23;20068;-84
2023/04/08 07:15:24;;;;;;;27.20;15.13;;;;;;;;;;6213292;23;20039;-84
2023/04/08 07:18:09;;;;;;;24.25;15.55;;;;;;;;;;6211508;23;20067;-84
2023/04/08 07:20:53;;;;;;;21.27;14.00;;;;;;;;;;6211406;23;20079;-84
2023/04/08 07:23:38;;;;;;;24.08;15.68;;;;;;;;;;6191034;23;20332;-85
2023/04/08 07:26:22;;;;;;;23.73;14.32;;;;;;;;;;6213446;23;20350;-85
2023/04/08 07:29:07;;;;;;;22.40;14.48;;;;;;;;;;6211287;23;20289;-85
2023/04/08 07:31:51;;;;;;;24.77;14.45;;;;;;;;;;6211511;23;20043;-84
2023/04/08 07:34:36;;;;;;;23.52;14.32;;;;;;;;;;6191001;23;20070;-84
2023/04/08 07:37:21;;;;;;;23.45;14.48;;;;;;;;;;6212064;23;20507;-85
2023/04/08 07:40:06;;;;;;;24.45;15.25;;;;;;;;;;6214630;23;20071;-84
2023/04/08 07:42:51;;;;;;;23.00;14.55;;;;;;;;;;6214541;23;20127;-87
2023/04/08 07:45:36;;;;;;;21.85;14.30;;;;;;;;;;6215259;23;20015;-84
2023/04/08 07:48:20;;;;;;;21.23;13.52;;;;;;;;;;6215366;23;20117;-84
2023/04/08 07:51:08;;;;;;;21.23;13.43;;;;;;;;;;6214428;23;20015;-84
2023/04/08 07:53:53;;;;;;;21.02;14.07;;;;;;;;;;6213255;23;20055;-85
2023/04/08 07:56:39;;;;;;;22.75;13.80;;;;;;;;;;6213689;23;20063;-84
2023/04/08 07:59:23;;;;;;;18.90;13.02;;;;;;;;;;6213806;23;20024;-85
2023/04/08 08:02:08;;;;;;;18.65;12.32;;;;;;;;;;6192160;23;20036;-84
2023/04/08 08:04:52;;;;;;;19.70;12.98;;;;;;;;;;6214666;23;20015;-87
2023/04/08 08:07:37;;;;;;;18.25;11.90;;;;;;;;;;6213826;23;20347;-84
2023/04/08 08:10:21;;;;;;;20.92;13.52;;;;;;;;;;6192755;23;20074;-85
2023/04/08 08:13:07;;;;;;;19.90;12.77;;;;;;;;;;6214319;23;20016;-84
2023/04/08 08:15:54;;;;;;;19.77;12.80;;;;;;;;;;6214943;23;20060;-84
2023/04/08 08:18:40;;;;;;;20.95;13.63;;;;;;;;;;6214956;23;20482;-85
2023/04/08 08:21:25;;;;;;;21.00;13.40;;;;;;;;;;6213689;23;20063;-85
2023/04/08 08:24:10;;;;;;;21.58;13.15;;;;;;;;;;6214132;23;20019;-85
2023/04/08 08:26:55;;;;;;;21.88;14.10;;;;;;;;;;6214682;23;20022;-87
2023/04/08 08:29:40;;;;;;;20.88;12.48;;;;;;;;;;6214956;23;20020;-84
2023/04/08 08:32:24;;;;;;;23.10;13.85;;;;;;;;;;6214701;23;20359;-85
2023/04/08 08:35:09;;;;;;;20.27;13.25;;;;;;;;;;6214281;23;20015;-85
2023/04/08 08:37:54;;;;;;;22.90;14.60;;;;;;;;;;6214704;23;20447;-84
2023/04/08 08:40:38;;;;;;;17.52;12.02;;;;;;;;;;6214751;23;20047;-84
2023/04/08 08:43:27;;;;;;;15.85;11.55;;;;;;;;;;6213719;23;20091;-84
2023/04/08 08:46:15;;;;;;;21.42;14.27;;;;;;;;;;6212753;23;20019;-84
2023/04/08 08:49:00;;;;;;;20.10;13.50;;;;;;;;;;6213941;23;20328;-85
2023/04/08 08:51:46;;;;;;;22.75;13.60;;;;;;;;;;6214771;23;20020;-84
2023/04/08 08:54:31;;;;;;;17.67;12.68;;;;;;;;;;6213347;23;20066;-82
2023/04/08 08:57:17;;;;;;;20.00;13.35;;;;;;;;;;6213867;23;20024;-82
2023/04/08 09:00:02;;;;;;;16.77;11.65;;;;;;;;;;6212633;23;20215;-83
2023/04/08 09:02:46;;;;;;;17.45;12.32;;;;;;;;;;6214417;23;20350;-83
2023/04/08 09:05:41;;;;;;;18.48;11.85;;;;;;;;;;6213286;23;20107;-82
2023/04/08 09:08:26;;;;;;;16.80;11.30;;;;;;;;;;6213867;23;20100;-82
2023/04/08 09:11:15;;;;;;;15.82;11.02;;;;;;;;;;6213930;23;20529;-82
2023/04/08 09:14:00;;;;;;;16.05;10.52;;;;;;;;;;6214277;23;20011;-85
2023/04/08 09:16:45;;;;;;;15.25;10.25;;;;;;;;;;6216312;23;20019;-82
2023/04/08 09:19:30;;;;;;;16.73;10.88;;;;;;;;;;6214368;23;20020;-82
2023/04/08 09:22:15;;;;;;;16.15;11.50;;;;;;;;;;6213679;23;20339;-82
2023/04/08 09:25:00;;;;;;;16.83;11.23;;;;;;;;;;6213092;23;20020;-82
2023/04/08 09:27:45;;;;;;;18.15;12.45;;;;;;;;;;6212996;23;20454;-82
2023/04/08 09:30:31;;;;;;;15.43;10.98;;;;;;;;;;6214228;23;20088;-82
2023/04/08 09:33:16;;;;;;;15.68;10.43;;;;;;;;;;6212369;23;20012;-82
2023/04/08 09:36:01;;;;;;;17.42;12.40;;;;;;;;;;6212790;23;20063;-82
2023/04/08 09:38:46;;;;;;;16.58;11.48;;;;;;;;;;6214204;23;20020;-82
2023/04/08 09:41:35;;;;;;;17.50;12.27;;;;;;;;;;6214113;23;20019;-82
2023/04/08 09:44:20;;;;;;;18.52;13.65;;;;;;;;;;6213437;23;20015;-82
2023/04/08 09:47:12;;;;;;;18.80;13.65;;;;;;;;;;6213791;23;20734;-85
2023/04/08 09:50:04;;;;;;;18.23;12.25;;;;;;;;;;6214124;23;20012;-82
2023/04/08 09:52:53;;;;;;;18.00;12.43;;;;;;;;;;6212768;23;20086;-82
2023/04/08 09:55:38;;;;;;;17.65;12.60;;;;;;;;;;6213938;23;20051;-82
2023/04/08 09:58:28;;;;;;;18.35;12.77;;;;;;;;;;6213327;23;20066;-82
2023/04/08 10:01:14;;;;;;;17.20;12.40;;;;;;;;;;6211585;23;20148;-82
2023/04/08 10:04:00;;;;;;;17.23;12.15;;;;;;;;;;6212672;23;20015;-82
2023/04/08 10:06:46;;;;;;;18.52;12.23;;;;;;;;;;6213927;23;20015;-81
2023/04/08 10:09:31;;;;;;;16.40;11.63;;;;;;;;;;6211816;23;20533;-83
2023/04/08 10:12:16;;;;;;;17.95;12.50;;;;;;;;;;6211969;23;20095;-82
2023/04/08 10:15:20;;;;;;;15.30;10.60;;;;;;;;;;6213677;23;20047;-85
2023/04/08 10:18:05;;;;;;;18.20;12.30;;;;;;;;;;6212537;23;20109;-86
2023/04/08 10:20:49;;;;;;;16.60;11.38;;;;;;;;;;6213833;23;20332;-85
2023/04/08 10:23:52;;;;;;;16.67;11.50;;;;;;;;;;6212570;23;20100;-85
2023/04/08 10:26:38;;;;;;;15.50;10.70;;;;;;;;;;6212541;23;20020;-85
2023/04/08 10:29:26;;;;;;;17.70;10.98;;;;;;;;;;6213109;23;20011;-85
2023/04/08 10:32:27;;;;;;;14.07;9.73;;;;;;;;;;6213349;23;20070;-87
2023/04/08 10:35:13;;;;;;;13.07;8.68;;;;;;;;;;6213145;23;20075;-86
2023/04/08 10:37:58;;;;;;;15.73;10.10;;;;;;;;;;6213666;23;20074;-84
2023/04/08 10:40:44;;;;;;;18.63;9.55;;;;;;;;;;6191308;23;20039;-85
2023/04/08 10:43:32;;;;;;;13.70;8.93;;;;;;;;;;6213071;23;20011;-84
2023/04/08 10:46:17;;;;;;;13.43;9.20;;;;;;;;;;6212895;23;20024;-85
2023/04/08 10:49:02;;;;;;;16.25;9.98;;;;;;;;;;6191449;23;20148;-85
2023/04/08 10:51:47;;;;;;;11.05;8.80;;;;;;;;;;6212406;23;20537;-85
2023/04/08 10:54:32;;;;;;;12.40;8.65;;;;;;;;;;6211717;23;20015;-84
2023/04/08 10:57:23;;;;;;;12.02;9.13;;;;;;;;;;6211727;23;20365;-85
2023/04/08 11:00:12;;;;;;;13.75;9.30;;;;;;;;;;6212829;23;20015;-85
2023/04/08 11:03:00;;;;;;;13.57;8.63;;;;;;;;;;6213696;23;20346;-84
2023/04/08 11:05:45;;;;;;;13.13;8.77;;;;;;;;;;6212262;23;20012;-84
2023/04/08 11:08:33;;;;;;;12.32;7.95;;;;;;;;;;6212826;23;20067;-84
2023/04/08 11:11:18;;;;;;;12.40;9.05;;;;;;;;;;6211482;23;20067;-82
2023/04/08 11:14:04;;;;;;;12.57;8.38;;;;;;;;;;6215551;23;20154;-85
2023/04/08 11:16:49;;;;;;;13.70;9.15;;;;;;;;;;6215408;23;20059;-84
2023/04/08 11:19:35;;;;;;;14.70;8.43;;;;;;;;;;6214632;23;20471;-85
2023/04/08 11:22:20;;;;;;;12.60;8.95;;;;;;;;;;6219210;23;20015;-85
2023/04/08 11:25:07;;;;;;;12.90;9.13;;;;;;;;;;6217082;23;20039;-85
2023/04/08 11:27:51;;;;;;;16.98;8.77;;;;;;;;;;6214272;23;20071;-85
2023/04/08 11:30:37;;;;;;;14.88;9.23;;;;;;;;;;6213532;23;20374;-85
2023/04/08 11:33:25;;;;;;;13.40;7.97;;;;;;;;;;6213574;23;20015;-84
2023/04/08 11:36:12;;;;;;;13.82;9.15;;;;;;;;;;6215236;23;20024;-85
2023/04/08 11:38:56;;;;;;;17.60;10.23;;;;;;;;;;6215734;23;20019;-85
2023/04/08 11:41:41;;;;;;;13.32;8.48;;;;;;;;;;6193501;23;20036;-85
2023/04/08 11:44:32;;;;;;;17.58;10.60;;;;;;;;;;6213301;23;20090;-84
2023/04/08 11:47:16;;;;;;;14.48;10.07;;;;;;;;;;6215218;23;20047;-85
2023/04/08 11:50:01;;;;;;;18.15;10.02;;;;;;;;;;6213966;23;20016;-85
2023/04/08 11:52:47;;;;;;;16.77;9.40;;;;;;;;;;6215069;23;20023;-84
2023/04/08 11:55:32;;;;;;;17.70;10.70;;;;;;;;;;6213464;23;20490;-84
2023/04/08 11:58:17;;;;;;;16.90;10.75;;;;;;;;;;6215061;23;20096;-84
2023/04/08 12:01:02;;;;;;;14.30;9.95;;;;;;;;;;6213885;23;20055;-84
2023/04/08 12:04:13;;;;;;;16.92;11.02;;;;;;;;;;6214067;23;20095;-85
2023/04/08 12:06:57;;;;;;;18.75;11.65;;;;;;;;;;6213613;23;20049;-84
2023/04/08 12:09:42;;;;;;;20.45;13.05;;;;;;;;;;6191869;23;20107;-84
2023/04/08 12:12:26;;;;;;;19.13;13.30;;;;;;;;;;6213287;23;20015;-84
2023/04/08 12:15:11;;;;;;;18.38;11.43;;;;;;;;;;6213725;23;20086;-84
2023/04/08 12:17:56;;;;;;;20.75;12.48;;;;;;;;;;6214959;23;20055;-85
2023/04/08 12:20:40;;;;;;;19.88;12.80;;;;;;;;;;6213079;23;20086;-84
2023/04/08 12:23:25;;;;;;;25.55;15.50;;;;;;;;;;6213030;23;20481;-86
2023/04/08 12:26:12;;;;;;;23.45;14.40;;;;;;;;;;6214849;23;20023;-84
2023/04/08 12:28:57;;;;;;;25.42;16.17;;;;;;;;;;6192370;23;20662;-84
2023/04/08 12:31:41;;;;;;;29.45;17.83;;;;;;;;;;6212989;23;20019;-84
2023/04/08 12:34:26;;;;;;;26.65;14.00;;;;;;;;;;6214268;23;20344;-87
2023/04/08 12:37:10;;;;;;;26.58;15.63;;;;;;;;;;6214457;23;20019;-84
2023/04/08 12:39:55;;;;;;;25.75;14.98;;;;;;;;;;6213424;23;20024;-86
2023/04/08 12:42:39;;;;;;;26.25;16.42;;;;;;;;;;6214192;23;20347;-85
2023/04/08 12:45:24;;;;;;;26.95;15.07;;;;;;;;;;6213550;23;20098;-85
2023/04/08 12:48:08;;;;;;;24.83;13.02;;;;;;;;;;6213461;23;20513;-84
2023/04/08 12:50:53;;;;;;;29.42;15.68;;;;;;;;;;6213801;23;20022;-85
2023/04/08 12:53:37;;;;;;;25.45;14.75;;;;;;;;;;6191773;23;20063;-85
2023/04/08 12:56:22;;;;;;;26.85;16.02;;;;;;;;;;6214541;23;20020;-85
2023/04/08 12:59:06;;;;;;;29.70;16.20;;;;;;;;;;6214638;23;20035;-85
2023/04/08 13:01:51;;;;;;;28.70;16.25;;;;;;;;;;6212863;23;20019;-84
2023/04/08 13:04:35;;;;;;;24.42;15.32;;;;;;;;;;6213860;23;20019;-84
2023/04/08 13:07:20;;;;;;;28.58;16.25;;;;;;;;;;6213484;23;20047;-85
2023/04/08 13:10:05;;;;;;;31.23;14.85;;;;;;;;;;6213526;23;20031;-85
2023/04/08 13:12:50;;;;;;;26.80;15.80;;;;;;;;;;6213963;23;20071;-85
2023/04/08 13:15:35;;;;;;;25.50;15.80;;;;;;;;;;6212629;23;20023;-85
2023/04/08 13:18:20;;;;;;;32.20;16.95;;;;;;;;;;6214303;23;20019;-84
2023/04/08 13:21:05;;;;;;;30.80;16.83;;;;;;;;;;6214422;23;20082;-85
2023/04/08 13:23:50;;;;;;;27.67;15.95;;;;;;;;;;6213794;23;20123;-85
2023/04/08 13:26:35;;;;;;;28.75;17.13;;;;;;;;;;6213748;23;20027;-86
2023/04/08 13:29:19;;;;;;;28.45;17.70;;;;;;;;;;6214235;23;20039;-85
2023/04/08 13:32:04;;;;;;;28.35;16.83;;;;;;;;;;6192080;23;20023;-84
2023/04/08 13:34:49;;;;;;;33.15;17.17;;;;;;;;;;6213733;23;20016;-84
2023/04/08 13:37:33;;;;;;;31.83;17.80;;;;;;;;;;6213211;23;20019;-85
2023/04/08 13:40:18;;;;;;;29.60;17.52;;;;;;;;;;6212909;23;20062;-82
2023/04/08 13:43:02;;;;;;;30.63;18.67;;;;;;;;;;6214062;23;20063;-82
2023/04/08 13:45:47;;;;;;;29.13;17.38;;;;;;;;;;6213434;23;20047;-83
2023/04/08 13:48:31;;;;;;;31.40;17.02;;;;;;;;;;6212931;23;20338;-82
2023/04/08 13:51:16;;;;;;;26.48;16.25;;;;;;;;;;6213961;23;20031;-82
2023/04/08 13:54:00;;;;;;;31.48;16.48;;;;;;;;;;6214071;23;20063;-82
2023/04/08 13:56:45;;;;;;;28.83;17.25;;;;;;;;;;6212003;23;20063;-81
2023/04/08 13:59:29;;;;;;;26.67;15.45;;;;;;;;;;6212741;23;20018;-84
2023/04/08 14:02:15;;;;;;;25.80;15.80;;;;;;;;;;6191637;23;20071;-82
2023/04/08 14:04:59;;;;;;;23.80;15.45;;;;;;;;;;6213347;23;20019;-83
2023/04/08 14:07:44;;;;;;;28.00;16.13;;;;;;;;;;6211749;23;20075;-82
2023/04/08 14:10:31;;;;;;;25.63;16.83;;;;;;;;;;6213848;23;20028;-84
2023/04/08 14:13:16;;;;;;;27.77;15.35;;;;;;;;;;6191906;23;20016;-82
2023/04/08 14:16:01;;;;;;;28.92;16.95;;;;;;;;;;6211903;23;20016;-86
2023/04/08 14:18:46;;;;;;;26.50;17.27;;;;;;;;;;6211777;23;20385;-82
2023/04/08 14:21:31;;;;;;;26.90;17.35;;;;;;;;;;6191393;23;20052;-82
2023/04/08 14:24:15;;;;;;;28.50;17.15;;;;;;;;;;6212468;23;20063;-84
2023/04/08 14:27:00;;;;;;;29.88;17.60;;;;;;;;;;6211855;23;20055;-84
2023/04/08 14:29:45;;;;;;;25.75;16.45;;;;;;;;;;6213169;23;20339;-84
2023/04/08 14:32:30;;;;;;;25.73;16.60;;;;;;;;;;6213494;23;20020;-83
2023/04/08 14:35:15;;;;;;;27.95;15.80;;;;;;;;;;6212318;23;20074;-82
2023/04/08 14:38:05;;;;;;;24.70;16.35;;;;;;;;;;6210267;23;20092;-85
2023/04/08 14:40:51;;;;;;;26.38;17.23;;;;;;;;;;6210818;23;20066;-83
2023/04/08 14:43:35;;;;;;;26.77;17.90;;;;;;;;;;6213133;23;20062;-81
2023/04/08 14:46:20;;;;;;;28.60;17.20;;;;;;;;;;6210382;23;20019;-84
2023/04/08 14:49:53;;;;;;;;;;;;;;;;;;;;;
2023/04/08 14:52:43;;;;;;;30.17;18.98;;;;;;;;;;6209470;23;20031;-85
2023/04/08 14:55:37;;;;;;;29.02;20.27;;;;;;;;;;6208842;23;20019;-86
2023/04/08 15:02:02;;;;;;;29.80;20.80;;;;;;;;;;6207686;23;20026;-83
2023/04/08 15:04:47;;;;;;;28.27;20.10;;;;;;;;;;6208503;23;20095;-84
2023/04/08 15:07:31;;;;;;;27.50;20.63;;;;;;;;;;6186906;23;20759;-84
2023/04/08 15:10:16;;;;;;;32.38;22.23;;;;;;;;;;6179287;23;20056;-84
2023/04/08 15:13:02;;;;;;;31.60;21.60;;;;;;;;;;6178604;23;20032;-83
2023/04/08 15:15:50;;;;;;;37.58;21.80;;;;;;;;;;6177754;23;20020;-85
2023/04/08 15:18:36;;;;;;;33.20;22.63;;;;;;;;;;6157117;23;20099;-84
2023/04/08 15:21:21;;;;;;;33.28;22.15;;;;;;;;;;6179468;23;20047;-83
2023/04/08 15:24:06;;;;;;;35.78;24.58;;;;;;;;;;6156139;23;20849;-84
2023/04/08 15:26:51;;;;;;;33.70;23.92;;;;;;;;;;6155688;23;20624;-84
2023/04/08 15:29:38;;;;;;;34.40;23.83;;;;;;;;;;6179264;23;20395;-84
2023/04/08 15:32:23;;;;;;;39.30;25.50;;;;;;;;;;6156856;23;20093;-84
2023/04/08 15:35:08;;;;;;;40.63;27.98;;;;;;;;;;6156230;23;20904;-83
2023/04/08 15:37:56;;;;;;;40.40;26.35;;;;;;;;;;6155564;23;20028;-86
2023/04/08 15:40:43;;;;;;;42.22;26.85;;;;;;;;;;6178857;23;20016;-85
2023/04/08 15:43:28;;;;;;;37.65;26.52;;;;;;;;;;6136120;23;20024;-83
2023/04/08 15:46:19;;;;;;;41.20;30.05;;;;;;;;;;6156984;23;20071;-82
2023/04/08 15:49:05;;;;;;;39.45;26.83;;;;;;;;;;6136332;23;20108;-83
2023/04/08 15:51:50;;;;;;;39.58;28.17;;;;;;;;;;6139646;23;20015;-86
2023/04/08 15:54:34;;;;;;;40.30;27.60;;;;;;;;;;6182755;23;20068;-83
2023/04/08 15:57:25;;;;;;;40.88;29.10;;;;;;;;;;6160715;23;20332;-82
2023/04/08 16:00:10;;;;;;;40.58;27.65;;;;;;;;;;6183766;23;20015;-83
2023/04/08 16:02:55;;;;;;;43.78;28.95;;;;;;;;;;6184608;23;20063;-84
2023/04/08 16:05:40;;;;;;;43.35;27.17;;;;;;;;;;6165108;23;20017;-85
2023/04/08 16:08:25;;;;;;;42.95;29.30;;;;;;;;;;6184392;23;20024;-86
2023/04/08 16:11:10;;;;;;;48.03;29.80;;;;;;;;;;6184183;23;20505;-85